Donaldson, AR

10:31 PM CDT on September 02, 2015 (GMT -0500)
Coats Colony | | Change Station
CLOSE
Current Station
Personal Weather Station
Location: Malvern, AR
Elevation: 381 ft
Nearby Weather Stations

Elev 381 ft 34.33 °N, 92.91 °W | Updated 6 minutes ago

Partly Cloudy
Partly Cloudy
72.9 °F
Feels Like 70 °F
N
0.0
Wind Variable Wind from West

Today
High -- | Low -- °F
--% Chance of Precip.
Yesterday
High -- | Low -- °F
Precip. -- in
6:45 AM 7:36 PM
Waning Gibbous, 74% visible
Pressure 30.04 in
Visibility 10.0 miles
Clouds Clear
Heat Index 70 °F
Dew Point 70 °F
Humidity 91%
Rainfall 0.00 in
Snow Depth Not available.
UV 0 out of 12
Pollen 9.80 out of 12
Air Quality Not available.
Flu Activity Not available.
METAR KADF 030256Z AUTO 00000KT 10SM CLR 22/22 A3000 RMK AO2 53007 T02220216 SLP173
Pressure 30.04 in
Visibility 10.0 miles
Clouds Clear
Heat Index 70 °F
Dew Point 70 °F
Humidity 91%
Rainfall 0.00 in
Snow Depth Not available.
UV 0 out of 12
Pollen 9.80 out of 12
Air Quality Not available.
Flu Activity Not available.
METAR KADF 030256Z AUTO 00000KT 10SM CLR 22/22 A3000 RMK AO2 53007 T02220216 SLP173

10-Day Weather Forecast

×

Almanac

Astronomy

Sep. 02, 2015 Rise Set
Actual Time
Civil Twilight
Nautical Twilight
Astronomical Twilight
Moon
Length of Visible Light
Length of Day
Tomorrow will be .
, % of the Moon is Illuminated

Today's Extremes

State Highs State Lows

Community

WunderPhotos

Upload Photos

1,851,902 photos uploaded!

WunderBlogs® & News

Nearby

Air Quality

  Air Quality AQ Index Pollutant
Not available.

Snow Depth

Station Depth Elevation

Earthquake Activity

City Distance Mag. Time & Date
Minimum magnitude displayed is 2.5.

Coastal Water Temperatures

Place Temperature

Stations

Nearby Weather Stations

Station Location Temp. Windchill Dew Point Humidity Wind Precip. Elev Updated Type